createdAt,value
2018-08-31T00:00:56.365Z,23.65
2018-08-31T00:03:22.696Z,23.67
2018-08-31T00:05:48.992Z,23.65
2018-08-31T00:08:15.326Z,23.67
2018-08-31T00:10:41.644Z,23.64
2018-08-31T00:13:07.962Z,23.65
2018-08-31T00:15:34.293Z,23.60
2018-08-31T00:18:00.639Z,23.65
2018-08-31T00:20:26.957Z,23.64
2018-08-31T00:22:53.284Z,23.56
2018-08-31T00:25:19.635Z,23.50
2018-08-31T00:27:45.948Z,23.44
2018-08-31T00:30:12.265Z,23.41
2018-08-31T00:32:38.586Z,23.38
2018-08-31T00:35:04.912Z,23.34
2018-08-31T00:37:31.246Z,23.29
2018-08-31T00:39:57.560Z,23.23
2018-08-31T00:42:23.891Z,23.20
2018-08-31T00:44:50.230Z,23.18
2018-08-31T00:47:16.553Z,23.16
2018-08-31T00:49:42.928Z,23.16
2018-08-31T00:52:09.330Z,23.15
2018-08-31T00:54:35.718Z,23.11
2018-08-31T00:57:02.078Z,22.99
2018-08-31T00:59:28.413Z,23.13
2018-08-31T01:01:54.777Z,23.06
2018-08-31T01:04:21.121Z,22.97
2018-08-31T01:06:47.533Z,22.91
2018-08-31T01:09:13.852Z,22.92
2018-08-31T01:11:40.181Z,22.89
2018-08-31T01:14:06.537Z,22.86
2018-08-31T01:16:32.891Z,22.83
2018-08-31T01:18:59.214Z,22.83
2018-08-31T01:21:25.556Z,22.78
2018-08-31T01:23:51.871Z,22.76
2018-08-31T01:26:18.179Z,22.79
2018-08-31T01:28:44.540Z,22.81
2018-08-31T01:31:10.860Z,22.74
2018-08-31T01:33:37.178Z,22.71
2018-08-31T01:36:03.493Z,22.67
2018-08-31T01:38:29.817Z,22.66
2018-08-31T01:40:56.139Z,22.63
2018-08-31T01:43:22.464Z,22.56
2018-08-31T01:45:48.789Z,22.53
2018-08-31T01:48:15.105Z,22.57
2018-08-31T01:50:41.424Z,22.58
2018-08-31T01:53:07.754Z,22.53
2018-08-31T01:55:34.093Z,22.50
2018-08-31T01:58:00.419Z,22.49
2018-08-31T02:00:26.726Z,22.41
2018-08-31T02:02:53.042Z,22.36
2018-08-31T02:05:19.408Z,22.40
2018-08-31T02:07:45.768Z,22.40
2018-08-31T02:10:12.087Z,22.40
2018-08-31T02:12:38.408Z,22.38
2018-08-31T02:15:04.797Z,22.36
2018-08-31T02:17:31.192Z,22.36
2018-08-31T02:19:57.522Z,22.35
2018-08-31T02:22:28.803Z,22.32
2018-08-31T02:25:05.703Z,22.26
2018-08-31T02:27:27.960Z,22.27
2018-08-31T02:29:51.936Z,22.28
2018-08-31T02:32:18.246Z,22.28
2018-08-31T02:34:44.615Z,22.26
2018-08-31T02:37:10.940Z,22.25
2018-08-31T02:39:37.255Z,22.24
2018-08-31T02:42:03.562Z,22.23
2018-08-31T02:44:29.893Z,22.18
2018-08-31T02:46:56.230Z,22.14
2018-08-31T02:49:22.544Z,22.13
2018-08-31T02:51:48.863Z,22.12
2018-08-31T02:54:15.184Z,22.11
2018-08-31T02:56:41.505Z,22.08
2018-08-31T02:59:07.832Z,22.06
2018-08-31T03:01:34.156Z,22.07
2018-08-31T03:04:00.473Z,22.07
2018-08-31T03:06:26.796Z,22.06
2018-08-31T03:08:53.113Z,22.04
2018-08-31T03:11:19.429Z,22.00
2018-08-31T03:13:45.761Z,21.96
2018-08-31T03:16:12.086Z,21.92
2018-08-31T03:18:38.396Z,21.95
2018-08-31T03:21:04.723Z,21.88
2018-08-31T03:23:31.053Z,21.88
2018-08-31T03:25:57.376Z,21.87
2018-08-31T03:28:23.699Z,21.84
2018-08-31T03:30:50.029Z,21.80
2018-08-31T03:33:16.358Z,21.83
2018-08-31T03:35:42.685Z,21.85
2018-08-31T03:38:09.015Z,21.86
2018-08-31T03:40:35.332Z,21.80
2018-08-31T03:43:01.658Z,21.70
2018-08-31T03:45:27.983Z,21.60
2018-08-31T03:47:54.335Z,21.60
2018-08-31T03:50:20.676Z,21.62
2018-08-31T03:52:47.045Z,21.58
2018-08-31T03:55:13.371Z,21.52
2018-08-31T03:57:39.736Z,21.60
2018-08-31T04:00:06.046Z,21.59
2018-08-31T04:02:32.367Z,21.59
2018-08-31T04:04:58.699Z,21.63
2018-08-31T04:07:25.028Z,21.66
2018-08-31T04:09:51.357Z,21.62
2018-08-31T04:12:17.665Z,21.61
2018-08-31T04:14:44.013Z,21.55
2018-08-31T04:17:10.337Z,21.51
2018-08-31T04:22:22.731Z,21.54
2018-08-31T04:24:49.040Z,21.62
2018-08-31T04:27:15.359Z,21.63
2018-08-31T04:29:41.678Z,21.69
2018-08-31T04:32:07.999Z,21.79
2018-08-31T04:34:34.326Z,21.84
2018-08-31T04:37:00.667Z,21.86
2018-08-31T04:39:27.019Z,21.90
2018-08-31T04:41:53.318Z,21.89
2018-08-31T04:44:19.639Z,21.93
2018-08-31T04:46:45.969Z,21.94
2018-08-31T04:49:12.283Z,21.99
2018-08-31T04:51:38.637Z,22.05
2018-08-31T04:54:04.952Z,22.07
2018-08-31T04:56:31.319Z,22.09
2018-08-31T04:58:57.755Z,22.15
2018-08-31T05:01:24.001Z,22.19
2018-08-31T05:03:50.338Z,22.20
2018-08-31T05:06:16.707Z,22.22
2018-08-31T05:08:43.062Z,22.30
2018-08-31T05:11:09.384Z,22.33
2018-08-31T05:13:35.756Z,22.38
2018-08-31T05:16:02.133Z,22.43
2018-08-31T05:18:28.389Z,22.52
2018-08-31T05:20:54.708Z,22.51
2018-08-31T05:23:21.037Z,22.61
2018-08-31T05:25:47.361Z,22.58
2018-08-31T05:28:13.687Z,22.73
2018-08-31T05:30:40.009Z,22.93
2018-08-31T05:33:06.396Z,23.13
2018-08-31T05:35:32.668Z,23.21
2018-08-31T05:37:59.005Z,23.28
2018-08-31T05:40:25.327Z,23.36
2018-08-31T05:42:51.653Z,23.47
2018-08-31T05:45:17.974Z,23.28
2018-08-31T05:47:44.374Z,22.94
2018-08-31T05:50:10.667Z,22.71
2018-08-31T05:52:37.034Z,22.55
2018-08-31T05:55:03.375Z,22.44
2018-08-31T05:57:29.700Z,22.48
2018-08-31T05:59:56.020Z,22.78
2018-08-31T06:02:22.349Z,23.01
2018-08-31T06:04:48.670Z,23.04
2018-08-31T06:07:14.988Z,23.17
2018-08-31T06:09:41.308Z,23.34
2018-08-31T06:12:07.639Z,23.47
2018-08-31T06:14:33.961Z,23.65
2018-08-31T06:17:00.279Z,23.73
2018-08-31T06:19:26.598Z,23.80
2018-08-31T06:21:52.910Z,23.96
2018-08-31T06:24:19.229Z,24.19
2018-08-31T06:26:45.546Z,24.19
2018-08-31T06:29:24.832Z,24.19
2018-08-31T06:31:51.116Z,24.30
2018-08-31T06:34:17.445Z,24.35
2018-08-31T06:36:43.762Z,24.34
2018-08-31T06:39:10.096Z,24.47
2018-08-31T06:41:36.421Z,24.54
2018-08-31T06:44:02.735Z,24.51
2018-08-31T06:46:29.055Z,24.68
2018-08-31T06:48:55.388Z,24.73
2018-08-31T06:51:21.784Z,24.77
2018-08-31T06:53:48.049Z,24.74
2018-08-31T06:56:14.364Z,24.80
2018-08-31T06:58:40.668Z,24.89
2018-08-31T07:01:06.993Z,24.90
2018-08-31T07:03:33.306Z,25.00
2018-08-31T07:05:59.623Z,25.13
2018-08-31T07:08:25.936Z,25.21
2018-08-31T07:10:52.256Z,25.29
2018-08-31T07:13:18.572Z,25.38
2018-08-31T07:15:44.893Z,25.49
2018-08-31T07:18:11.216Z,25.65
2018-08-31T07:20:37.538Z,25.77
2018-08-31T07:23:03.861Z,25.86
2018-08-31T07:25:30.207Z,25.96
2018-08-31T07:27:56.577Z,26.01
2018-08-31T07:30:22.896Z,26.14
2018-08-31T07:32:49.208Z,26.30
2018-08-31T07:35:15.515Z,26.36
2018-08-31T07:37:41.827Z,26.44
2018-08-31T07:40:08.148Z,26.46
2018-08-31T07:42:34.484Z,26.54
2018-08-31T07:45:00.796Z,26.66
2018-08-31T07:47:27.105Z,26.66
2018-08-31T07:49:53.416Z,26.68
2018-08-31T07:52:19.740Z,26.79
2018-08-31T07:54:46.063Z,26.91
2018-08-31T07:57:12.384Z,27.02
2018-08-31T07:59:38.703Z,27.14
2018-08-31T08:02:05.015Z,27.19
2018-08-31T08:04:31.336Z,27.26
2018-08-31T08:06:57.649Z,27.36
2018-08-31T08:09:23.955Z,27.46
2018-08-31T08:11:50.265Z,27.52
2018-08-31T08:14:16.586Z,27.58
2018-08-31T08:16:42.900Z,27.68
2018-08-31T08:19:09.244Z,27.76
2018-08-31T08:21:35.539Z,27.83
2018-08-31T08:24:01.857Z,27.85
2018-08-31T08:26:28.166Z,27.94
2018-08-31T08:28:54.494Z,28.07
2018-08-31T08:31:20.818Z,28.10
2018-08-31T08:33:47.128Z,28.12
2018-08-31T08:36:13.471Z,28.21
2018-08-31T08:38:39.787Z,28.29
2018-08-31T08:41:06.115Z,28.23
2018-08-31T08:43:32.443Z,28.09
2018-08-31T08:45:58.756Z,27.97
2018-08-31T08:48:25.094Z,27.93
2018-08-31T08:50:51.371Z,27.90
2018-08-31T08:53:17.701Z,28.11
2018-08-31T08:55:44.008Z,28.17
2018-08-31T08:58:10.361Z,28.22
2018-08-31T09:00:36.675Z,28.21
2018-08-31T09:03:02.975Z,28.35
2018-08-31T09:05:29.330Z,28.38
2018-08-31T09:07:55.599Z,28.44
2018-08-31T09:10:21.916Z,28.55
2018-08-31T09:12:48.229Z,28.70
2018-08-31T09:15:14.545Z,28.71
2018-08-31T09:17:40.860Z,28.79
2018-08-31T09:20:07.234Z,28.88
2018-08-31T09:22:33.594Z,29.03
2018-08-31T09:24:59.907Z,29.06
2018-08-31T09:27:26.225Z,29.19
2018-08-31T09:29:52.567Z,29.25
2018-08-31T09:32:18.895Z,29.20
2018-08-31T09:34:45.257Z,29.36
2018-08-31T09:37:11.636Z,29.35
2018-08-31T09:39:37.996Z,29.46
2018-08-31T09:42:04.307Z,29.60
2018-08-31T09:44:30.625Z,29.74
2018-08-31T09:46:56.949Z,29.82
2018-08-31T09:49:23.339Z,29.89
2018-08-31T09:51:49.648Z,29.89
2018-08-31T09:54:15.974Z,29.80
2018-08-31T09:56:42.298Z,29.89
2018-08-31T09:59:08.623Z,30.03
2018-08-31T10:01:34.937Z,30.14
2018-08-31T10:04:01.263Z,30.14
2018-08-31T10:06:27.582Z,29.99
2018-08-31T10:08:53.920Z,29.94
2018-08-31T10:11:20.233Z,30.07
2018-08-31T10:13:46.572Z,30.04
2018-08-31T10:16:12.899Z,30.12
2018-08-31T10:18:39.232Z,30.23
2018-08-31T10:21:05.564Z,30.25
2018-08-31T10:23:31.879Z,30.28
2018-08-31T10:25:58.214Z,30.34
2018-08-31T10:28:24.527Z,30.43
2018-08-31T10:30:50.847Z,30.50
2018-08-31T10:33:17.202Z,30.58
2018-08-31T10:35:43.512Z,30.66
2018-08-31T10:38:09.871Z,30.64
2018-08-31T10:40:36.202Z,30.64
2018-08-31T10:43:02.530Z,30.73
2018-08-31T10:45:28.840Z,30.85
2018-08-31T10:47:55.155Z,30.91
2018-08-31T10:50:21.479Z,30.97
2018-08-31T10:52:47.826Z,30.99
2018-08-31T10:55:14.147Z,31.02
2018-08-31T10:57:40.495Z,31.02
2018-08-31T11:00:06.889Z,31.00
2018-08-31T11:02:33.196Z,31.01
2018-08-31T11:04:59.521Z,31.03
2018-08-31T11:07:25.835Z,31.00
2018-08-31T11:09:52.166Z,31.02
2018-08-31T11:12:18.495Z,30.99
2018-08-31T11:14:44.808Z,31.00
2018-08-31T11:17:11.128Z,31.03
2018-08-31T11:19:37.451Z,31.02
2018-08-31T11:22:03.778Z,31.02
2018-08-31T11:24:30.092Z,31.14
2018-08-31T11:26:56.421Z,31.16
2018-08-31T11:29:22.750Z,31.16
2018-08-31T11:31:49.081Z,31.02
2018-08-31T11:34:15.386Z,31.08
2018-08-31T11:36:41.719Z,31.21
2018-08-31T11:39:08.051Z,31.27
2018-08-31T11:41:34.415Z,31.27
2018-08-31T11:44:00.710Z,31.25
2018-08-31T11:46:27.045Z,31.16
2018-08-31T11:48:53.366Z,31.17
2018-08-31T11:51:19.702Z,31.15
2018-08-31T11:53:46.063Z,31.15
2018-08-31T11:56:12.396Z,31.24
2018-08-31T11:58:38.761Z,31.23
2018-08-31T12:03:31.403Z,31.18
2018-08-31T12:05:57.712Z,31.13
2018-08-31T12:08:24.029Z,31.13
2018-08-31T12:10:50.355Z,31.13
2018-08-31T12:13:16.717Z,31.23
2018-08-31T12:15:43.043Z,31.20
2018-08-31T12:18:09.365Z,31.09
2018-08-31T12:20:35.693Z,31.07
2018-08-31T12:23:02.022Z,31.10
2018-08-31T12:25:28.390Z,31.09
2018-08-31T12:27:54.767Z,31.07
2018-08-31T12:30:21.129Z,31.09
2018-08-31T12:32:47.457Z,31.07
2018-08-31T12:35:13.781Z,31.11
2018-08-31T12:40:06.437Z,31.04
2018-08-31T12:42:32.769Z,31.04
2018-08-31T12:44:59.095Z,31.01
2018-08-31T12:47:25.426Z,31.04
2018-08-31T12:49:51.740Z,30.99
2018-08-31T12:52:18.055Z,30.92
2018-08-31T12:54:44.371Z,30.90
2018-08-31T12:57:10.689Z,30.87
2018-08-31T12:59:37.015Z,30.86
2018-08-31T13:02:03.324Z,30.88
2018-08-31T13:04:29.631Z,30.93
2018-08-31T13:06:56.030Z,30.95
2018-08-31T13:09:22.300Z,30.94
2018-08-31T13:11:48.612Z,30.89
2018-08-31T13:14:14.923Z,30.87
2018-08-31T13:16:41.251Z,30.87
2018-08-31T13:19:07.568Z,30.85
2018-08-31T13:21:33.899Z,30.77
2018-08-31T13:24:00.264Z,30.76
2018-08-31T13:26:26.548Z,30.75
2018-08-31T13:28:52.856Z,30.69
2018-08-31T13:31:19.393Z,30.64
2018-08-31T13:33:45.532Z,30.63
2018-08-31T13:36:11.838Z,30.64
2018-08-31T13:38:38.155Z,30.62
2018-08-31T13:41:04.470Z,30.61
2018-08-31T13:43:30.780Z,30.60
2018-08-31T13:45:57.113Z,30.57
2018-08-31T13:48:23.463Z,30.54
2018-08-31T13:50:49.771Z,30.51
2018-08-31T13:53:16.103Z,30.47
2018-08-31T13:55:42.411Z,30.43
2018-08-31T13:58:08.754Z,30.43
2018-08-31T14:00:35.070Z,30.45
2018-08-31T14:03:01.522Z,30.43
2018-08-31T14:05:27.837Z,30.39
2018-08-31T14:07:54.188Z,30.36
2018-08-31T14:10:20.501Z,30.37
2018-08-31T14:12:46.934Z,30.33
2018-08-31T14:15:13.188Z,30.27
2018-08-31T14:17:39.520Z,30.26
2018-08-31T14:20:05.861Z,30.25
2018-08-31T14:22:32.172Z,30.26
2018-08-31T14:24:58.492Z,30.26
2018-08-31T14:27:24.823Z,30.23
2018-08-31T14:29:51.294Z,30.20
2018-08-31T14:32:17.474Z,30.18
2018-08-31T14:34:43.804Z,30.16
2018-08-31T14:37:10.123Z,30.16
2018-08-31T14:39:36.492Z,30.15
2018-08-31T14:42:02.845Z,30.11
2018-08-31T14:44:29.193Z,30.12
2018-08-31T14:46:55.531Z,30.11
2018-08-31T14:49:21.889Z,30.10
2018-08-31T14:51:48.153Z,30.01
2018-08-31T14:54:14.508Z,30.06
2018-08-31T14:56:40.819Z,30.05
2018-08-31T14:59:07.145Z,30.00
2018-08-31T15:01:33.469Z,29.99
2018-08-31T15:03:59.810Z,29.95
2018-08-31T15:06:26.134Z,29.95
2018-08-31T15:08:52.446Z,29.93
2018-08-31T15:11:18.778Z,29.90
2018-08-31T15:13:45.105Z,29.88
2018-08-31T15:16:11.437Z,29.87
2018-08-31T15:18:38.774Z,29.87
2018-08-31T15:21:05.091Z,29.84
2018-08-31T15:23:31.545Z,29.77
2018-08-31T15:25:57.730Z,29.75
2018-08-31T15:28:24.057Z,29.72
2018-08-31T15:30:50.385Z,29.69
2018-08-31T15:33:16.696Z,29.66
2018-08-31T15:35:43.075Z,29.62
2018-08-31T15:38:09.446Z,29.64
2018-08-31T15:40:35.771Z,29.58
2018-08-31T15:43:02.120Z,29.52
2018-08-31T15:45:28.495Z,29.48
2018-08-31T15:47:54.823Z,29.47
2018-08-31T15:50:21.158Z,29.47
2018-08-31T15:52:47.465Z,29.43
2018-08-31T15:55:13.776Z,29.40
2018-08-31T15:57:40.141Z,29.39
2018-08-31T16:00:06.524Z,29.37
2018-08-31T16:02:32.913Z,29.34
2018-08-31T16:04:59.141Z,29.31
2018-08-31T16:07:25.470Z,29.28
2018-08-31T16:09:51.816Z,29.31
2018-08-31T16:12:18.125Z,29.29
2018-08-31T16:14:44.459Z,29.30
2018-08-31T16:17:10.785Z,29.32
2018-08-31T16:19:37.101Z,29.32
2018-08-31T16:22:03.422Z,29.27
2018-08-31T16:24:29.757Z,29.20
2018-08-31T16:26:56.090Z,29.17
2018-08-31T16:29:22.448Z,29.19
2018-08-31T16:31:48.774Z,29.20
2018-08-31T16:34:15.093Z,29.19
2018-08-31T16:36:41.428Z,29.18
2018-08-31T16:39:07.756Z,29.14
2018-08-31T16:41:34.099Z,29.10
2018-08-31T16:44:00.427Z,29.07
2018-08-31T16:46:26.791Z,28.98
2018-08-31T16:48:53.107Z,28.93
2018-08-31T16:51:19.463Z,28.89
2018-08-31T16:53:45.773Z,28.83
2018-08-31T16:56:12.099Z,28.77
2018-08-31T16:58:38.411Z,28.69
2018-08-31T17:01:04.743Z,28.67
2018-08-31T17:03:31.075Z,28.56
2018-08-31T17:05:57.403Z,28.50
2018-08-31T17:08:23.731Z,28.44
2018-08-31T17:10:50.085Z,28.40
2018-08-31T17:13:16.420Z,28.35
2018-08-31T17:15:42.784Z,28.29
2018-08-31T17:18:09.111Z,28.25
2018-08-31T17:20:35.434Z,28.16
2018-08-31T17:23:01.758Z,28.12
2018-08-31T17:25:28.087Z,28.08
2018-08-31T17:27:54.413Z,28.00
2018-08-31T17:30:20.783Z,27.95
2018-08-31T17:32:47.097Z,27.80
2018-08-31T17:35:13.461Z,27.73
2018-08-31T17:37:39.785Z,27.72
2018-08-31T17:40:06.099Z,27.64
2018-08-31T17:42:32.422Z,27.61
2018-08-31T17:44:58.751Z,27.53
2018-08-31T17:47:25.085Z,27.53
2018-08-31T17:49:51.406Z,27.49
2018-08-31T17:52:17.715Z,27.45
2018-08-31T17:54:44.027Z,27.41
2018-08-31T17:57:10.417Z,27.29
2018-08-31T17:59:36.731Z,27.17
2018-08-31T18:02:03.045Z,27.09
2018-08-31T18:04:29.352Z,27.07
2018-08-31T18:06:55.721Z,27.03
2018-08-31T18:09:22.114Z,26.99
2018-08-31T18:11:48.351Z,26.91
2018-08-31T18:14:14.677Z,26.91
2018-08-31T18:16:41.136Z,26.96
2018-08-31T18:19:07.308Z,26.86
2018-08-31T18:21:33.638Z,26.89
2018-08-31T18:23:59.974Z,26.84
2018-08-31T18:26:26.299Z,26.87
2018-08-31T18:28:52.616Z,26.96
2018-08-31T18:31:18.931Z,26.91
2018-08-31T18:33:45.253Z,26.89
2018-08-31T18:36:11.642Z,26.77
2018-08-31T18:38:37.958Z,26.70
2018-08-31T18:41:04.288Z,26.64
2018-08-31T18:43:30.600Z,26.55
2018-08-31T18:45:56.939Z,26.49
2018-08-31T18:48:23.293Z,26.39
2018-08-31T18:50:49.619Z,26.40
2018-08-31T18:53:15.931Z,26.49
2018-08-31T18:55:42.262Z,26.45
2018-08-31T18:58:08.583Z,26.43
2018-08-31T19:00:34.914Z,26.35
2018-08-31T19:03:01.244Z,26.37
2018-08-31T19:05:27.575Z,26.51
2018-08-31T19:07:53.903Z,26.52
2018-08-31T19:10:20.234Z,26.55
2018-08-31T19:12:46.610Z,26.56
2018-08-31T19:15:12.897Z,26.49
2018-08-31T19:17:39.226Z,26.49
2018-08-31T19:20:05.555Z,26.52
2018-08-31T19:22:31.865Z,26.45
2018-08-31T19:24:58.313Z,26.50
2018-08-31T19:27:24.530Z,26.47
2018-08-31T19:29:50.863Z,26.43
2018-08-31T19:32:17.175Z,26.21
2018-08-31T19:34:43.485Z,26.06
2018-08-31T19:37:09.813Z,26.06
2018-08-31T19:39:36.119Z,25.96
2018-08-31T19:42:02.450Z,25.78
2018-08-31T19:44:28.783Z,25.64
2018-08-31T19:46:55.214Z,25.68
2018-08-31T19:49:21.433Z,25.68
2018-08-31T19:51:47.754Z,25.70
2018-08-31T19:54:14.070Z,25.59
2018-08-31T19:56:40.398Z,25.43
2018-08-31T19:59:06.709Z,25.33
2018-08-31T20:01:33.039Z,25.31
2018-08-31T20:03:59.368Z,25.45
2018-08-31T20:06:25.707Z,25.47
2018-08-31T20:08:52.042Z,25.53
2018-08-31T20:11:18.352Z,25.59
2018-08-31T20:13:44.675Z,25.56
2018-08-31T20:16:11.061Z,25.57
2018-08-31T20:18:37.299Z,25.42
2018-08-31T20:21:03.621Z,25.39
2018-08-31T20:23:29.961Z,25.34
2018-08-31T20:25:56.274Z,25.26
2018-08-31T20:28:22.652Z,25.21
2018-08-31T20:30:49.009Z,25.06
2018-08-31T20:33:15.271Z,24.98
2018-08-31T20:35:41.597Z,24.88
2018-08-31T20:38:07.907Z,24.81
2018-08-31T20:40:34.220Z,24.77
2018-08-31T20:43:00.565Z,24.84
2018-08-31T20:45:26.849Z,24.82
2018-08-31T20:47:53.163Z,24.77
2018-08-31T20:50:19.489Z,24.93
2018-08-31T20:52:45.814Z,25.04
2018-08-31T20:55:12.130Z,25.11
2018-08-31T20:57:38.494Z,25.11
2018-08-31T21:00:04.837Z,25.04
2018-08-31T21:02:31.203Z,25.01
2018-08-31T21:04:57.466Z,25.04
2018-08-31T21:07:23.789Z,25.01
2018-08-31T21:09:50.119Z,24.96
2018-08-31T21:12:16.445Z,24.79
2018-08-31T21:14:42.763Z,24.64
2018-08-31T21:17:09.079Z,24.58
2018-08-31T21:19:35.403Z,24.53
2018-08-31T21:22:01.716Z,24.49
2018-08-31T21:24:28.055Z,24.52
2018-08-31T21:26:54.376Z,24.58
2018-08-31T21:29:20.712Z,24.52
2018-08-31T21:31:47.038Z,24.54
2018-08-31T21:34:13.385Z,24.56
2018-08-31T21:36:39.713Z,24.54
2018-08-31T21:39:06.022Z,24.41
2018-08-31T21:41:32.353Z,24.59
2018-08-31T21:43:58.700Z,24.76
2018-08-31T21:46:25.114Z,24.79
2018-08-31T21:48:51.471Z,24.75
2018-08-31T21:51:17.788Z,24.64
2018-08-31T21:53:44.123Z,24.63
2018-08-31T21:56:10.451Z,24.65
2018-08-31T21:58:36.768Z,24.68
2018-08-31T22:01:03.112Z,24.61
2018-08-31T22:03:29.413Z,24.55
2018-08-31T22:05:55.756Z,24.46
2018-08-31T22:08:22.140Z,24.44
2018-08-31T22:10:48.403Z,24.52
2018-08-31T22:13:14.747Z,24.54
2018-08-31T22:15:41.126Z,24.51
2018-08-31T22:18:07.427Z,24.51
2018-08-31T22:20:33.740Z,24.47
2018-08-31T22:23:00.141Z,24.43
2018-08-31T22:25:26.463Z,24.41
2018-08-31T22:27:52.817Z,24.32
2018-08-31T22:30:19.166Z,24.10
2018-08-31T22:32:45.500Z,23.94
2018-08-31T22:35:11.833Z,23.85
2018-08-31T22:37:38.212Z,24.00
2018-08-31T22:40:04.529Z,24.06
2018-08-31T22:42:30.848Z,24.05
2018-08-31T22:44:57.194Z,24.06
2018-08-31T22:47:23.581Z,24.06
2018-08-31T22:49:49.938Z,24.03
2018-08-31T22:52:16.295Z,24.08
2018-08-31T22:54:42.595Z,24.09
2018-08-31T22:57:08.924Z,24.12
2018-08-31T22:59:35.336Z,24.04
2018-08-31T23:02:01.606Z,24.07
2018-08-31T23:04:27.964Z,24.05
2018-08-31T23:06:54.293Z,24.03
2018-08-31T23:09:20.612Z,24.05
2018-08-31T23:11:46.947Z,24.06
2018-08-31T23:14:13.275Z,24.09
2018-08-31T23:16:39.624Z,24.04
2018-08-31T23:19:06.040Z,24.01
2018-08-31T23:21:32.354Z,23.97
2018-08-31T23:23:58.674Z,23.93
2018-08-31T23:26:24.999Z,23.92
2018-08-31T23:28:51.314Z,23.94
2018-08-31T23:31:17.624Z,23.90
2018-08-31T23:33:43.949Z,23.93
2018-08-31T23:36:10.270Z,23.90
2018-08-31T23:38:36.596Z,23.86
2018-08-31T23:41:02.916Z,23.89
2018-08-31T23:43:29.283Z,23.90
2018-08-31T23:45:55.605Z,23.84
2018-08-31T23:48:21.921Z,23.81
2018-08-31T23:50:48.242Z,23.76
2018-08-31T23:53:14.581Z,23.66
2018-08-31T23:55:40.890Z,23.67
2018-08-31T23:58:07.219Z,23.64
